ADDS METAR Data INFO
IDs: Format: Raw Decoded Include TAF

Data at: 1355 UTC 26 May 2018

KPSN 261335Z AUTO 17006KT 10SM SCT120 25/22 A2987 RMK AO2 T02520225
KPSN 261315Z AUTO 16003KT 10SM CLR 24/22 A2987 RMK AO2 T02460221
KPSN 261255Z AUTO 00000KT 10SM CLR 23/22 A2985 RMK AO2 T02400220
KPSN 261235Z AUTO 12003KT 10SM CLR 23/22 A2985 RMK AO2 T02360220
KPSN 261215Z AUTO 00000KT 10SM CLR 23/22 A2984 RMK AO2 T02310220
KPSN 261155Z AUTO 17003KT 10SM CLR 22/21 A2982 RMK AO2 T02270217
KPSN 261135Z AUTO 16005KT 10SM CLR 22/21 A2982 RMK AO2 T02260217
KPSN 261115Z AUTO 16006KT 10SM CLR 22/21 A2982 RMK AO2 T02250217
KPSN 261055Z AUTO 18007KT 10SM CLR 22/21 A2982 RMK AO2 T02210215
KPSN 261035Z AUTO 16004KT 10SM CLR 22/21 A2986 RMK AO2 T02240215
KPSN 261015Z AUTO 00000KT 10SM CLR 22/21 A2987 RMK AO2 T02260215
KPSN 260955Z AUTO 00000KT 10SM -RA SCT120 22/21 A2987 RMK AO2 T02300215
KPSN 260935Z AUTO 03004KT 10SM OVC110 22/21 A2988 RMK AO2 T02270213
KPSN 260915Z AUTO 10003KT 10SM BKN100 22/21 A2986 RMK AO2 T02220210
KPSN 260855Z AUTO 12003KT 10SM SCT110 22/20 A2986 RMK AO2 T02240207
KPSN 260835Z AUTO 15003KT 10SM SCT120 22/20 A2986 RMK AO2 T02230207
KPSN 260815Z AUTO 00000KT 10SM BKN110 21/20 A2986 RMK AO2 T02190204
KPSN 260755Z AUTO 00000KT 10SM CLR 22/20 A2987 RMK AO2 T02220205
KPSN 260735Z AUTO 13003KT 10SM CLR 21/20 A2984 RMK AO2 T02180203
KPSN 260715Z AUTO 17003KT 10SM SCT120 22/20 A2985 RMK AO2 T02200201
KPSN 260655Z AUTO 00000KT 10SM SCT120 22/20 A2987 RMK AO2 T02200200
KPSN 260635Z AUTO 00000KT 10SM CLR 21/20 A2988 RMK AO2 T02180197
KPSN 260615Z AUTO 13003KT 10SM CLR 22/19 A2989 RMK AO2 T02200195
KPSN 260555Z AUTO 14003KT 10SM CLR 22/19 A2989 RMK AO2 T02210193
KPSN 260535Z AUTO 00000KT 10SM CLR 22/19 A2989 RMK AO2 T02240195
KPSN 260515Z AUTO 00000KT 10SM CLR 22/19 A2988 RMK AO2 T02270194
KPSN 260455Z AUTO 00000KT 10SM CLR 22/20 A2988 RMK AO2 T02260200
KPSN 260435Z AUTO 16003KT 10SM CLR 22/20 A2988 RMK AO2 T02300200
KPSN 260415Z AUTO 15003KT 10SM CLR 23/20 A2989 RMK AO2 T02310200
KPSN 260355Z AUTO 00000KT 10SM CLR 22/20 A2989 RMK AO2 T02300197
KPSN 260335Z AUTO 10003KT 10SM CLR 22/20 A2989 RMK AO2 T02290200
KPSN 260315Z AUTO 08003KT 10SM CLR 22/20 A2988 RMK AO2 T02300199
KPSN 260255Z AUTO 13004KT 10SM CLR 23/20 A2987 RMK AO2 T02310201
KPSN 260235Z AUTO 00000KT 10SM CLR 23/20 A2988 RMK AO2 T02330202
KPSN 260215Z AUTO 00000KT 10SM CLR 23/20 A2988 RMK AO2 T02350200
KPSN 260155Z AUTO 00000KT 10SM CLR 23/19 A2987 RMK AO2 T02350195
KPSN 260135Z AUTO 00000KT 10SM CLR 23/19 A2987 RMK AO2 T02380195
KPSN 260115Z AUTO 14004KT 10SM SCT120 23/19 A2987 RMK AO2 T02410191
KPSN 260055Z AUTO 15003KT 10SM CLR 24/18 A2987 RMK AO2 T02450188
KPSN 260035Z AUTO 00000KT 10SM CLR 25/17 A2989 RMK AO2 T02550177
KPSN 260015Z AUTO 00000KT 10SM CLR 26/16 A2989 RMK AO2 T02600169
KPSN 252355Z AUTO 03006KT 10SM CLR 27/16 A2989 RMK AO2 T02700161
KPSN 252335Z AUTO 13004KT 10SM CLR 26/16 A2987 RMK AO2 T02680168
KPSN 252315Z AUTO 03003KT 10SM CLR 25/16 A2990 RMK AO2 T02550166
KPSN 252255Z AUTO 31006KT 10SM CLR 25/17 A2991 RMK AO2 T02490177
KPSN 252235Z AUTO 05007KT 10SM CLR 25/19 A2990 RMK AO2 T02470193
KPSN 252215Z AUTO 11007KT 10SM CLR 25/18 A2990 RMK AO2 T02520189
KPSN 252155Z AUTO 08005G14KT 10SM CLR 26/17 A2996 RMK AO2 T02600174
KPSN 252135Z AUTO 05011G18KT 10SM SCT060 SCT070 SCT090 26/17 A2997 RMK AO2 T02660175
KPSN 252115Z AUTO 36010G29KT 330V030 10SM BKN047 BKN060 OVC070 23/18 A2997 RMK AO2 T02320183
KPSN 252055Z AUTO 33009G16KT 10SM BKN045 BKN050 32/20 A2995 RMK AO2 T03250203
KPSN 252035Z AUTO 19004KT 10SM CLR 31/20 A2994 RMK AO2 T03120204
KPSN 252015Z AUTO 27003KT 10SM SCT042 SCT048 31/20 A2995 RMK AO2 T03180202
KPSN 251955Z AUTO 18004KT 10SM OVC042 31/20 A2996 RMK AO2 T03140207
KPSN 251935Z AUTO 16004KT 10SM BKN038 OVC060 32/21 A2996 RMK AO2 T03220211
KPSN 251915Z AUTO 22005KT 10SM BKN036 31/21 A2997 RMK AO2 T03150212
KPSN 251855Z AUTO 10003KT 10SM SCT034 31/21 A2997 RMK AO2 T03100211
KPSN 251835Z AUTO 18003KT 10SM SCT032 30/21 A2998 RMK AO2 T03050210
KPSN 251815Z AUTO 20005KT 10SM SCT032 30/21 A2998 RMK AO2 T03080214
KPSN 251755Z AUTO 17004KT 10SM SCT028 SCT035 30/21 A2998 RMK AO2 T03000212
KPSN 251735Z AUTO 11005KT 10SM BKN028 BKN033 29/21 A3000 RMK AO2 T02950214
KPSN 251715Z AUTO 19003KT 10SM SCT028 29/21 A3000 RMK AO2 T02960218
KPSN 251655Z AUTO 22005KT 10SM SCT023 28/21 A3001 RMK AO2 T02880215
KPSN 251635Z AUTO 20006KT 10SM SCT021 28/22 A3001 RMK AO2 T02910219
KPSN 251615Z AUTO 17004KT 10SM SCT019 28/22 A3001 RMK AO2 T02850222
KPSN 251555Z AUTO 20005KT 10SM SCT017 27/22 A3001 RMK AO2 T02790222
KPSN 251535Z AUTO 20005KT 10SM BKN015 27/22 A3001 RMK AO2 T02780225
KPSN 251515Z AUTO 15004KT 10SM BKN017 27/22 A3001 RMK AO2 T02800224
KPSN 251455Z AUTO 19004KT 10SM CLR 27/22 A3001 RMK AO2 T02740222
KPSN 251435Z AUTO 19006KT 10SM CLR 26/22 A3001 RMK AO2 T02650222
KPSN 251415Z AUTO 19004KT 10SM CLR 25/22 A3002 RMK AO2 T02570222
KPSN 251355Z AUTO 21003KT 10SM CLR 25/22 A3001 RMK AO2 T02510223
KPSN 251335Z AUTO 18004KT 10SM CLR 24/22 A3001 RMK AO2 T02450223
KPSN 251315Z AUTO 17004KT 10SM CLR 23/22 A3000 RMK AO2 T02350221
KPSN 251255Z AUTO 17003KT 10SM CLR 22/22 A3000 RMK AO2 T02270222
KPSN 251235Z AUTO 13003KT 7SM CLR 22/22 A3001 RMK AO2 T02230223
KPSN 251215Z AUTO 00000KT 7SM CLR 22/22 A3000 RMK AO2 T02200220
KPSN 251155Z AUTO 00000KT 5SM BR CLR 21/21 A3000 RMK AO2 T02100210
KPSN 251135Z AUTO 00000KT 5SM BR CLR 21/21 A3000 RMK AO2 T02150215
KPSN 251115Z AUTO 00000KT 7SM CLR 21/21 A2999 RMK AO2 T02150215
KPSN 251055Z AUTO 00000KT 7SM CLR 21/21 A2999 RMK AO2 T02150215
KPSN 251035Z AUTO 00000KT 7SM CLR 21/21 A2998 RMK AO2 T02160216
KPSN 251015Z AUTO 00000KT 10SM CLR 21/21 A2999 RMK AO2 T02180215
KPSN 250955Z AUTO 00000KT 10SM CLR 22/21 A2999 RMK AO2 T02200216
KPSN 250935Z AUTO 15003KT 10SM CLR 22/21 A3000 RMK AO2 T02210215
KPSN 250915Z AUTO 00000KT 10SM CLR 22/21 A3000 RMK AO2 T02220215
KPSN 250855Z AUTO 00000KT 10SM CLR 22/21 A3000 RMK AO2 T02250215
KPSN 250835Z AUTO 00000KT 10SM CLR 22/21 A3000 RMK AO2 T02260215
KPSN 250815Z AUTO 00000KT 10SM CLR 22/21 A3000 RMK AO2 T02290216
KPSN 250755Z AUTO 15003KT 10SM CLR 22/21 A3000 RMK AO2 T02300215
KPSN 250735Z AUTO 13003KT 10SM CLR 22/21 A3001 RMK AO2 T02300215
KPSN 250715Z AUTO 14003KT 10SM CLR 23/21 A3002 RMK AO2 T02320215
KPSN 250655Z AUTO 00000KT 10SM CLR 23/21 A3002 RMK AO2 T02350215
KPSN 250635Z AUTO 13003KT 10SM CLR 23/21 A3002 RMK AO2 T02360213
KPSN 250615Z AUTO 00000KT 10SM CLR 23/21 A3003 RMK AO2 T02400213
KPSN 250555Z AUTO 00000KT 10SM CLR 24/21 A3004 RMK AO2 T02420213
KPSN 250535Z AUTO 00000KT 10SM CLR 24/21 A3004 RMK AO2 T02460212
KPSN 250515Z AUTO 14003KT 10SM SCT050 25/21 A3004 RMK AO2 T02500212
KPSN 250455Z AUTO 14003KT 10SM SCT050 25/21 A3004 RMK AO2 T02520211
KPSN 250435Z AUTO 00000KT 10SM SCT050 25/21 A3004 RMK AO2 T02540210
KPSN 250415Z AUTO 00000KT 10SM SCT050 SCT070 25/21 A3004 RMK AO2 T02570208
KPSN 250355Z AUTO 12003KT 10SM SCT050 BKN065 26/21 A3004 RMK AO2 T02620209
KPSN 250335Z AUTO 10004KT 10SM SCT050 SCT060 SCT075 26/21 A3004 RMK AO2 T02580210
KPSN 250315Z AUTO 09004KT 10SM SCT050 25/21 A3003 RMK AO2 T02480215
KPSN 250255Z AUTO 00000KT 10SM SCT050 26/21 A3002 RMK AO2 T02600210
KPSN 250235Z AUTO 09003KT 10SM SCT050 26/21 A3001 RMK AO2 T02600210
KPSN 250215Z AUTO 09003KT 10SM CLR 26/21 A3001 RMK AO2 T02630210